createdAt,value
2022-09-04T00:01:48.397Z,20.61
2022-09-04T00:04:23.941Z,20.65
2022-09-04T00:06:56.897Z,20.61
2022-09-04T00:09:32.643Z,20.61
2022-09-04T00:12:05.345Z,20.69
2022-09-04T00:14:40.205Z,20.75
2022-09-04T00:17:11.800Z,20.77
2022-09-04T00:19:43.302Z,20.74
2022-09-04T00:22:21.837Z,20.74
2022-09-04T00:24:56.221Z,20.88
2022-09-04T00:27:26.266Z,20.82
2022-09-04T00:29:57.338Z,20.71
2022-09-04T00:32:36.572Z,20.68
2022-09-04T00:35:09.136Z,20.63
2022-09-04T00:37:40.315Z,20.72
2022-09-04T00:40:18.128Z,20.65
2022-09-04T00:43:02.953Z,20.60
2022-09-04T00:45:41.158Z,20.65
2022-09-04T00:48:37.280Z,20.69
2022-09-04T00:51:18.265Z,20.73
2022-09-04T00:54:28.591Z,20.77
2022-09-04T00:57:13.941Z,20.66
2022-09-04T00:59:57.216Z,20.63
2022-09-04T01:02:33.781Z,20.65
2022-09-04T01:05:09.603Z,20.66
2022-09-04T01:07:50.882Z,20.60
2022-09-04T01:10:31.445Z,20.56
2022-09-04T01:13:06.642Z,20.66
2022-09-04T01:15:39.059Z,20.68
2022-09-04T01:18:11.140Z,20.48
2022-09-04T01:21:15.927Z,20.60
2022-09-04T01:24:00.981Z,20.61
2022-09-04T01:26:37.525Z,20.60
2022-09-04T01:29:16.977Z,20.60
2022-09-04T01:31:51.776Z,20.56
2022-09-04T01:34:40.749Z,20.54
2022-09-04T01:37:21.078Z,20.41
2022-09-04T01:40:08.741Z,20.49
2022-09-04T01:42:43.961Z,20.41
2022-09-04T01:45:11.991Z,20.35
2022-09-04T01:47:45.008Z,20.44
2022-09-04T01:50:15.760Z,20.46
2022-09-04T01:52:50.512Z,20.41
2022-09-04T01:55:24.018Z,20.45
2022-09-04T01:58:00.961Z,20.33
2022-09-04T02:00:32.696Z,20.35
2022-09-04T02:03:05.809Z,20.34
2022-09-04T02:05:48.175Z,20.28
2022-09-04T02:08:31.052Z,20.33
2022-09-04T02:11:04.708Z,20.33
2022-09-04T02:13:43.606Z,20.26
2022-09-04T02:16:16.662Z,20.08
2022-09-04T02:18:51.300Z,20.16
2022-09-04T02:21:27.177Z,20.25
2022-09-04T02:24:04.683Z,20.07
2022-09-04T02:26:37.000Z,20.17
2022-09-04T02:29:11.363Z,20.05
2022-09-04T02:31:46.447Z,19.99
2022-09-04T02:34:19.515Z,19.96
2022-09-04T02:36:51.048Z,19.98
2022-09-04T02:39:30.785Z,19.98
2022-09-04T02:42:05.750Z,19.98
2022-09-04T02:44:43.286Z,20.02
2022-09-04T02:47:18.112Z,19.97
2022-09-04T02:49:55.349Z,19.93
2022-09-04T02:52:33.483Z,19.92
2022-09-04T02:55:15.622Z,19.96
2022-09-04T02:57:54.944Z,20.01
2022-09-04T03:00:28.207Z,19.95
2022-09-04T03:03:00.283Z,19.99
2022-09-04T03:05:32.729Z,20.00
2022-09-04T03:08:03.406Z,20.04
2022-09-04T03:10:33.349Z,20.01
2022-09-04T03:13:06.861Z,20.00
2022-09-04T03:15:40.984Z,19.98
2022-09-04T03:18:17.077Z,20.00
2022-09-04T03:20:48.599Z,19.95
2022-09-04T03:23:20.845Z,19.91
2022-09-04T03:25:58.130Z,19.93
2022-09-04T03:28:35.448Z,19.90
2022-09-04T03:31:17.687Z,19.92
2022-09-04T03:33:52.529Z,19.86
2022-09-04T03:36:27.929Z,19.87
2022-09-04T03:39:03.905Z,19.74
2022-09-04T03:41:37.448Z,19.67
2022-09-04T03:44:13.697Z,19.66
2022-09-04T03:46:51.026Z,19.54
2022-09-04T03:49:25.058Z,19.52
2022-09-04T03:52:01.159Z,19.45
2022-09-04T03:54:46.189Z,19.29
2022-09-04T03:57:23.716Z,19.47
2022-09-04T04:00:03.480Z,19.48
2022-09-04T04:02:40.578Z,19.33
2022-09-04T04:05:27.673Z,19.34
2022-09-04T04:08:41.281Z,19.38
2022-09-04T04:11:21.863Z,19.33
2022-09-04T04:14:06.869Z,19.44
2022-09-04T04:16:43.226Z,19.33
2022-09-04T04:19:27.613Z,19.39
2022-09-04T04:22:13.632Z,19.49
2022-09-04T04:24:55.128Z,19.50
2022-09-04T04:27:33.475Z,19.54
2022-09-04T04:30:07.443Z,19.50
2022-09-04T04:33:10.789Z,19.49
2022-09-04T04:35:44.500Z,19.49
2022-09-04T04:38:32.674Z,19.49
2022-09-04T04:41:12.977Z,19.40
2022-09-04T04:43:53.609Z,19.45
2022-09-04T04:46:27.829Z,19.07
2022-09-04T04:49:10.059Z,19.05
2022-09-04T04:51:56.311Z,19.13
2022-09-04T04:54:40.985Z,18.71
2022-09-04T04:57:14.188Z,19.08
2022-09-04T04:59:46.046Z,18.92
2022-09-04T05:02:21.266Z,18.85
2022-09-04T05:04:54.282Z,18.81
2022-09-04T05:07:35.427Z,18.85
2022-09-04T05:10:10.604Z,18.62
2022-09-04T05:12:50.978Z,18.68
2022-09-04T05:15:23.953Z,18.31
2022-09-04T05:17:54.488Z,18.39
2022-09-04T05:20:30.131Z,18.60
2022-09-04T05:23:10.681Z,18.38
2022-09-04T05:25:41.889Z,18.74
2022-09-04T05:28:22.141Z,18.70
2022-09-04T05:30:53.570Z,18.76
2022-09-04T05:33:26.725Z,18.72
2022-09-04T05:35:59.461Z,18.79
2022-09-04T05:38:31.882Z,18.58
2022-09-04T05:41:06.324Z,18.47
2022-09-04T05:43:54.419Z,18.49
2022-09-04T05:46:35.685Z,18.54
2022-09-04T05:49:11.915Z,18.50
2022-09-04T05:52:03.515Z,18.62
2022-09-04T05:54:59.457Z,18.58
2022-09-04T05:57:35.629Z,18.58
2022-09-04T06:00:13.568Z,18.60
2022-09-04T06:03:04.434Z,18.45
2022-09-04T06:05:42.272Z,18.80
2022-09-04T06:08:24.131Z,18.47
2022-09-04T06:11:03.921Z,18.54
2022-09-04T06:13:59.250Z,18.73
2022-09-04T06:16:41.788Z,18.62
2022-09-04T06:19:23.932Z,18.66
2022-09-04T06:22:05.503Z,18.70
2022-09-04T06:24:46.229Z,18.74
2022-09-04T06:27:35.351Z,18.73
2022-09-04T06:30:07.398Z,18.70
2022-09-04T06:32:56.417Z,18.57
2022-09-04T06:35:37.475Z,18.40
2022-09-04T06:38:15.979Z,18.25
2022-09-04T06:40:51.327Z,18.40
2022-09-04T06:43:29.685Z,18.35
2022-09-04T06:46:04.838Z,18.49
2022-09-04T06:48:43.691Z,18.47
2022-09-04T06:51:24.534Z,18.31
2022-09-04T06:53:59.783Z,18.43
2022-09-04T06:56:42.910Z,18.50
2022-09-04T06:59:31.274Z,18.47
2022-09-04T07:02:06.847Z,18.84
2022-09-04T07:04:44.952Z,18.75
2022-09-04T07:07:18.470Z,18.80
2022-09-04T07:09:48.720Z,18.76
2022-09-04T07:12:28.921Z,18.79
2022-09-04T07:15:22.325Z,18.78
2022-09-04T07:18:01.216Z,18.96
2022-09-04T07:20:34.521Z,18.88
2022-09-04T07:23:28.688Z,18.75
2022-09-04T07:26:06.098Z,19.03
2022-09-04T07:28:42.949Z,18.94
2022-09-04T07:31:15.784Z,19.18
2022-09-04T07:33:53.024Z,19.23
2022-09-04T07:36:29.560Z,19.43
2022-09-04T07:39:04.845Z,19.44
2022-09-04T07:41:39.653Z,19.36
2022-09-04T07:44:12.318Z,19.47
2022-09-04T07:46:46.885Z,19.72
2022-09-04T07:49:20.010Z,19.93
2022-09-04T07:51:54.857Z,20.06
2022-09-04T07:55:00.113Z,20.21
2022-09-04T07:57:47.716Z,20.46
2022-09-04T08:00:17.954Z,20.56
2022-09-04T08:03:01.291Z,20.71
2022-09-04T08:05:32.310Z,20.89
2022-09-04T08:08:26.267Z,20.93
2022-09-04T08:11:17.212Z,21.13
2022-09-04T08:14:18.447Z,21.16
2022-09-04T08:16:53.310Z,21.34
2022-09-04T08:19:34.429Z,21.55
2022-09-04T08:22:04.367Z,21.51
2022-09-04T08:25:03.488Z,21.67
2022-09-04T08:27:50.317Z,21.66
2022-09-04T08:30:21.044Z,21.82
2022-09-04T08:33:10.035Z,21.77
2022-09-04T08:35:46.952Z,22.13
2022-09-04T08:38:27.720Z,22.09
2022-09-04T08:41:35.324Z,22.07
2022-09-04T08:44:20.731Z,22.15
2022-09-04T08:47:18.771Z,22.23
2022-09-04T08:50:07.080Z,22.32
2022-09-04T08:53:03.597Z,22.34
2022-09-04T08:55:45.116Z,22.47
2022-09-04T08:58:32.067Z,22.43
2022-09-04T09:01:24.359Z,22.70
2022-09-04T09:04:11.752Z,22.83
2022-09-04T09:06:57.303Z,22.77
2022-09-04T09:09:54.220Z,23.34
2022-09-04T09:13:06.750Z,23.00
2022-09-04T09:15:50.359Z,23.12
2022-09-04T09:18:37.214Z,23.09
2022-09-04T09:21:10.361Z,23.24
2022-09-04T09:23:52.585Z,23.43
2022-09-04T09:26:31.009Z,23.19
2022-09-04T09:29:20.002Z,23.26
2022-09-04T09:32:15.796Z,23.56
2022-09-04T09:35:25.925Z,23.48
2022-09-04T09:38:06.035Z,23.55
2022-09-04T09:41:00.406Z,23.53
2022-09-04T09:43:59.001Z,23.50
2022-09-04T09:46:46.209Z,23.48
2022-09-04T09:49:42.536Z,23.59
2022-09-04T09:52:23.860Z,23.60
2022-09-04T09:55:07.011Z,23.58
2022-09-04T09:58:19.141Z,23.68
2022-09-04T10:00:59.013Z,23.61
2022-09-04T10:03:45.161Z,23.61
2022-09-04T10:07:00.398Z,23.53
2022-09-04T10:10:02.575Z,23.59
2022-09-04T10:12:48.068Z,23.90
2022-09-04T10:16:00.866Z,23.98
2022-09-04T10:18:57.532Z,23.92
2022-09-04T10:21:43.300Z,23.92
2022-09-04T10:24:36.159Z,24.21
2022-09-04T10:27:28.664Z,24.10
2022-09-04T10:30:06.159Z,24.15
2022-09-04T10:33:11.355Z,23.96
2022-09-04T10:36:07.628Z,24.18
2022-09-04T10:39:03.265Z,24.12
2022-09-04T10:41:43.177Z,24.04
2022-09-04T10:44:22.915Z,24.16
2022-09-04T10:46:59.599Z,24.31
2022-09-04T10:49:47.445Z,24.49
2022-09-04T10:52:38.044Z,24.44
2022-09-04T10:55:21.668Z,24.45
2022-09-04T10:58:15.109Z,24.54
2022-09-04T11:00:52.760Z,24.79
2022-09-04T11:03:41.552Z,24.80
2022-09-04T11:06:49.211Z,24.53
2022-09-04T11:09:28.293Z,24.67
2022-09-04T11:12:13.795Z,24.50
2022-09-04T11:14:53.937Z,24.58
2022-09-04T11:17:42.100Z,24.66
2022-09-04T11:20:47.873Z,24.72
2022-09-04T11:23:38.006Z,24.86
2022-09-04T11:26:47.760Z,24.92
2022-09-04T11:29:29.983Z,24.80
2022-09-04T11:32:25.616Z,24.78
2022-09-04T11:35:14.017Z,25.07
2022-09-04T11:37:59.320Z,25.13
2022-09-04T11:40:44.850Z,25.03
2022-09-04T11:43:24.563Z,25.30
2022-09-04T11:46:12.573Z,25.19
2022-09-04T11:48:48.894Z,25.09
2022-09-04T11:51:39.103Z,25.47
2022-09-04T11:54:20.340Z,25.30
2022-09-04T11:56:57.908Z,25.55
2022-09-04T11:59:44.797Z,25.40
2022-09-04T12:02:57.268Z,25.32
2022-09-04T12:05:40.269Z,25.29
2022-09-04T12:08:35.745Z,25.27
2022-09-04T12:11:19.143Z,25.39
2022-09-04T12:14:03.219Z,25.44
2022-09-04T12:16:47.654Z,25.52
2022-09-04T12:19:42.225Z,25.49
2022-09-04T12:22:44.052Z,25.49
2022-09-04T12:25:44.360Z,25.59
2022-09-04T12:28:38.797Z,25.48
2022-09-04T12:31:22.226Z,25.49
2022-09-04T12:34:12.829Z,25.40
2022-09-04T12:37:00.832Z,25.55
2022-09-04T12:39:54.027Z,25.63
2022-09-04T12:42:24.113Z,25.73
2022-09-04T12:45:04.127Z,25.64
2022-09-04T12:47:41.555Z,25.63
2022-09-04T12:50:37.240Z,25.64
2022-09-04T12:53:32.823Z,25.78
2022-09-04T12:56:05.715Z,25.64
2022-09-04T12:58:53.381Z,25.51
2022-09-04T13:01:31.892Z,25.55
2022-09-04T13:04:11.436Z,25.53
2022-09-04T13:06:50.389Z,25.53
2022-09-04T13:09:25.795Z,25.47
2022-09-04T13:12:02.965Z,25.58
2022-09-04T13:14:48.965Z,25.54
2022-09-04T13:17:23.237Z,25.42
2022-09-04T13:20:00.459Z,25.70
2022-09-04T13:22:45.869Z,25.67
2022-09-04T13:25:17.277Z,25.70
2022-09-04T13:27:57.223Z,25.67
2022-09-04T13:30:26.445Z,25.54
2022-09-04T13:33:16.361Z,25.60
2022-09-04T13:35:55.176Z,25.60
2022-09-04T13:38:41.064Z,25.70
2022-09-04T13:41:30.463Z,25.69
2022-09-04T13:44:20.664Z,25.77
2022-09-04T13:46:51.602Z,25.84
2022-09-04T13:49:24.369Z,25.81
2022-09-04T13:51:59.390Z,25.84
2022-09-04T13:54:31.323Z,26.12
2022-09-04T13:57:04.081Z,26.03
2022-09-04T13:59:31.976Z,25.91
2022-09-04T14:02:05.062Z,25.87
2022-09-04T14:04:37.324Z,26.09
2022-09-04T14:07:10.671Z,26.01
2022-09-04T14:09:43.881Z,25.97
2022-09-04T14:12:19.868Z,25.94
2022-09-04T14:15:16.115Z,25.97
2022-09-04T14:17:49.518Z,26.10
2022-09-04T14:20:22.509Z,26.07
2022-09-04T14:22:58.366Z,26.03
2022-09-04T14:25:32.204Z,26.25
2022-09-04T14:28:03.405Z,26.10
2022-09-04T14:30:34.183Z,26.24
2022-09-04T14:33:19.454Z,26.17
2022-09-04T14:35:59.764Z,26.20
2022-09-04T14:39:03.732Z,26.17
2022-09-04T14:41:39.870Z,26.27
2022-09-04T14:44:19.057Z,26.22
2022-09-04T14:46:56.106Z,26.12
2022-09-04T14:49:29.228Z,25.99
2022-09-04T14:51:57.205Z,25.81
2022-09-04T14:54:26.884Z,25.95
2022-09-04T14:56:57.974Z,26.05
2022-09-04T14:59:32.459Z,25.92
2022-09-04T15:02:14.236Z,25.78
2022-09-04T15:04:46.587Z,25.83
2022-09-04T15:07:25.137Z,25.82
2022-09-04T15:09:54.564Z,25.88
2022-09-04T15:12:27.403Z,25.88
2022-09-04T15:14:58.433Z,25.83
2022-09-04T15:17:28.329Z,25.79
2022-09-04T15:20:00.775Z,25.74
2022-09-04T15:22:34.609Z,25.64
2022-09-04T15:25:05.858Z,25.83
2022-09-04T15:27:40.759Z,25.87
2022-09-04T15:30:18.211Z,25.95
2022-09-04T15:32:46.318Z,25.99
2022-09-04T15:35:23.001Z,25.79
2022-09-04T15:37:52.997Z,25.77
2022-09-04T15:40:28.980Z,25.75
2022-09-04T15:43:04.621Z,25.86
2022-09-04T15:45:41.230Z,25.86
2022-09-04T15:48:29.012Z,25.91
2022-09-04T15:51:04.820Z,26.01
2022-09-04T15:53:34.665Z,25.92
2022-09-04T15:56:10.242Z,25.90
2022-09-04T15:58:47.585Z,25.95
2022-09-04T16:01:17.414Z,25.84
2022-09-04T16:04:01.143Z,25.80
2022-09-04T16:06:32.148Z,25.68
2022-09-04T16:09:03.932Z,25.89
2022-09-04T16:11:35.345Z,25.84
2022-09-04T16:14:08.107Z,25.75
2022-09-04T16:16:42.073Z,25.78
2022-09-04T16:19:18.124Z,25.81
2022-09-04T16:21:52.343Z,25.84
2022-09-04T16:24:30.683Z,25.73
2022-09-04T16:26:58.593Z,25.73
2022-09-04T16:29:36.477Z,25.76
2022-09-04T16:32:06.668Z,25.84
2022-09-04T16:34:38.857Z,25.47
2022-09-04T16:37:12.993Z,25.82
2022-09-04T16:39:48.534Z,25.62
2022-09-04T16:42:21.846Z,25.53
2022-09-04T16:44:54.406Z,25.61
2022-09-04T16:47:27.133Z,25.54
2022-09-04T16:50:00.409Z,25.47
2022-09-04T16:52:37.244Z,25.53
2022-09-04T16:55:10.397Z,25.46
2022-09-04T16:57:42.331Z,25.44
2022-09-04T17:00:14.594Z,25.24
2022-09-04T17:02:48.889Z,25.33
2022-09-04T17:05:23.511Z,25.23
2022-09-04T17:08:00.402Z,25.27
2022-09-04T17:10:36.983Z,25.07
2022-09-04T17:13:10.294Z,25.15
2022-09-04T17:15:53.122Z,25.17
2022-09-04T17:18:23.753Z,25.13
2022-09-04T17:25:43.297Z,25.28
2022-09-04T17:29:04.504Z,25.28
2022-09-04T17:29:15.035Z,25.12
2022-09-04T17:29:44.622Z,25.04
2022-09-04T17:33:30.579Z,24.98
2022-09-04T17:40:35.958Z,25.09
2022-09-04T17:40:36.610Z,24.89
2022-09-04T17:41:39.705Z,24.92
2022-09-04T17:44:19.617Z,24.83
2022-09-04T17:46:55.445Z,24.83
2022-09-04T17:49:34.648Z,24.94
2022-09-04T17:52:07.116Z,25.07
2022-09-04T17:54:41.040Z,24.89
2022-09-04T17:57:13.215Z,24.77
2022-09-04T17:59:45.846Z,24.81
2022-09-04T18:02:17.561Z,24.83
2022-09-04T18:04:51.289Z,25.06
2022-09-04T18:08:05.162Z,24.80
2022-09-04T18:10:20.035Z,24.99
2022-09-04T18:12:52.536Z,24.97
2022-09-04T18:15:33.764Z,25.13
2022-09-04T18:18:09.647Z,25.02
2022-09-04T18:20:41.564Z,25.02
2022-09-04T18:23:21.568Z,24.95
2022-09-04T18:25:53.577Z,24.96
2022-09-04T18:28:26.876Z,24.70
2022-09-04T18:37:11.171Z,24.78
2022-09-04T18:37:22.648Z,24.61
2022-09-04T18:37:23.209Z,24.59
2022-09-04T18:39:38.573Z,24.88
2022-09-04T18:49:10.338Z,24.83
2022-09-04T18:50:23.644Z,24.84
2022-09-04T18:50:45.858Z,24.61
2022-09-04T18:51:21.228Z,24.58
2022-09-04T18:53:54.176Z,24.60
2022-09-04T18:56:26.409Z,24.35
2022-09-04T18:59:08.052Z,24.70
2022-09-04T19:01:42.201Z,24.55
2022-09-04T19:04:33.963Z,24.57
2022-09-04T19:07:07.305Z,24.47
2022-09-04T19:09:59.619Z,24.60
2022-09-04T19:12:46.815Z,24.51
2022-09-04T19:15:48.009Z,24.42
2022-09-04T19:18:24.619Z,24.17
2022-09-04T19:20:55.830Z,24.43
2022-09-04T19:23:29.293Z,24.44
2022-09-04T19:26:04.080Z,24.04
2022-09-04T19:28:45.662Z,24.23
2022-09-04T19:31:31.139Z,24.34
2022-09-04T19:34:03.848Z,24.00
2022-09-04T19:36:38.321Z,23.84
2022-09-04T19:45:54.848Z,23.75
2022-09-04T19:46:07.545Z,23.90
2022-09-04T19:46:19.143Z,23.78
2022-09-04T19:47:58.588Z,23.91
2022-09-04T19:53:17.883Z,23.96
2022-09-04T19:53:38.896Z,23.90
2022-09-04T19:56:12.171Z,23.83
2022-09-04T19:58:44.065Z,23.69
2022-09-04T20:01:16.988Z,23.90
2022-09-04T20:03:50.338Z,23.95
2022-09-04T20:06:22.534Z,23.91
2022-09-04T20:08:55.955Z,23.87
2022-09-04T20:11:34.435Z,23.60
2022-09-04T20:14:13.815Z,23.66
2022-09-04T20:16:49.273Z,23.81
2022-09-04T20:19:27.683Z,23.80
2022-09-04T20:25:01.166Z,23.78
2022-09-04T20:27:38.365Z,23.56
2022-09-04T20:30:12.336Z,23.48
2022-09-04T20:32:51.259Z,23.40
2022-09-04T20:35:33.059Z,23.39
2022-09-04T20:38:23.354Z,23.52
2022-09-04T20:40:55.728Z,23.53
2022-09-04T20:43:31.472Z,23.57
2022-09-04T20:52:45.032Z,23.45
2022-09-04T20:52:53.855Z,23.56
2022-09-04T20:52:56.434Z,23.54
2022-09-04T20:55:05.374Z,23.64
2022-09-04T21:03:13.651Z,23.70
2022-09-04T21:03:25.555Z,23.62
2022-09-04T21:03:56.402Z,23.51
2022-09-04T21:06:30.445Z,23.47
2022-09-04T21:09:06.827Z,23.68
2022-09-04T21:11:41.685Z,23.31
2022-09-04T21:14:15.460Z,23.57
2022-09-04T21:16:56.209Z,23.48
2022-09-04T21:19:41.107Z,23.49
2022-09-04T21:22:32.911Z,23.49
2022-09-04T21:25:18.364Z,23.57
2022-09-04T21:28:12.260Z,23.44
2022-09-04T21:30:49.975Z,23.38
2022-09-04T21:33:32.307Z,23.46
2022-09-04T21:36:26.683Z,23.44
2022-09-04T21:39:25.016Z,23.39
2022-09-04T21:42:21.888Z,23.33
2022-09-04T21:45:04.300Z,23.34
2022-09-04T21:47:52.355Z,23.36
2022-09-04T21:50:42.232Z,23.47
2022-09-04T21:53:40.837Z,23.09
2022-09-04T21:59:41.207Z,23.12
2022-09-04T22:02:42.250Z,23.22
2022-09-04T22:02:51.470Z,23.37
2022-09-04T22:05:23.661Z,23.31
2022-09-04T22:12:11.751Z,23.39
2022-09-04T22:13:39.192Z,23.45
2022-09-04T22:13:50.634Z,23.41
2022-09-04T22:16:42.410Z,23.33
2022-09-04T22:19:35.763Z,23.25
2022-09-04T22:22:17.260Z,23.27
2022-09-04T22:25:07.205Z,23.29
2022-09-04T22:28:07.882Z,23.07
2022-09-04T22:30:49.409Z,22.98
2022-09-04T22:33:48.472Z,22.96
2022-09-04T22:36:59.122Z,22.91
2022-09-04T22:39:45.924Z,22.74
2022-09-04T22:42:35.551Z,22.93
2022-09-04T22:45:29.585Z,23.02
2022-09-04T22:48:21.810Z,23.07
2022-09-04T22:51:04.365Z,22.82
2022-09-04T22:53:52.068Z,22.91
2022-09-04T22:56:29.473Z,22.97
2022-09-04T22:59:26.483Z,22.93
2022-09-04T23:02:14.206Z,23.11
2022-09-04T23:05:06.032Z,22.98
2022-09-04T23:13:42.211Z,22.77
2022-09-04T23:13:50.286Z,22.76
2022-09-04T23:14:07.783Z,22.74
2022-09-04T23:17:14.104Z,22.56
2022-09-04T23:26:39.156Z,22.64
2022-09-04T23:26:42.694Z,22.65
2022-09-04T23:26:54.237Z,22.34
2022-09-04T23:29:24.833Z,22.62
2022-09-04T23:32:09.965Z,22.35
2022-09-04T23:35:13.412Z,22.59
2022-09-04T23:38:00.019Z,22.13
2022-09-04T23:40:42.272Z,22.41
2022-09-04T23:43:40.565Z,22.18
2022-09-04T23:46:23.618Z,22.45
2022-09-04T23:49:19.061Z,22.26
2022-09-04T23:51:51.929Z,22.36
2022-09-04T23:54:37.389Z,22.20
2022-09-04T23:57:23.463Z,22.21
2022-09-04T23:59:59.388Z,22.58
